sensor_id;sensor_type;location;lat;lon;timestamp;temperature;humidity
17887;DHT22;9069;52.044;7.472;2023-02-01T00:02:13;8.30;97.20
17887;DHT22;9069;52.044;7.472;2023-02-01T00:04:40;8.30;97.30
17887;DHT22;9069;52.044;7.472;2023-02-01T00:07:07;8.30;97.30
17887;DHT22;9069;52.044;7.472;2023-02-01T00:09:34;8.30;97.30
17887;DHT22;9069;52.044;7.472;2023-02-01T00:12:00;8.30;97.30
17887;DHT22;9069;52.044;7.472;2023-02-01T00:14:29;8.30;97.30
17887;DHT22;9069;52.044;7.472;2023-02-01T00:16:56;8.30;97.30
17887;DHT22;9069;52.044;7.472;2023-02-01T00:19:22;8.30;97.30
17887;DHT22;9069;52.044;7.472;2023-02-01T00:21:49;8.30;97.40
17887;DHT22;9069;52.044;7.472;2023-02-01T00:24:16;8.30;97.40
17887;DHT22;9069;52.044;7.472;2023-02-01T00:29:25;8.20;97.50
17887;DHT22;9069;52.044;7.472;2023-02-01T00:31:52;8.30;97.60
17887;DHT22;9069;52.044;7.472;2023-02-01T00:34:19;8.30;97.60
17887;DHT22;9069;52.044;7.472;2023-02-01T00:36:47;8.30;97.60
17887;DHT22;9069;52.044;7.472;2023-02-01T00:39:14;8.20;97.70
17887;DHT22;9069;52.044;7.472;2023-02-01T00:41:41;8.30;97.70
17887;DHT22;9069;52.044;7.472;2023-02-01T00:44:08;8.30;97.80
17887;DHT22;9069;52.044;7.472;2023-02-01T00:46:35;8.30;97.80
17887;DHT22;9069;52.044;7.472;2023-02-01T00:49:02;8.30;97.90
17887;DHT22;9069;52.044;7.472;2023-02-01T00:51:29;8.30;97.90
17887;DHT22;9069;52.044;7.472;2023-02-01T00:53:56;8.30;97.90
17887;DHT22;9069;52.044;7.472;2023-02-01T00:56:24;8.30;97.90
17887;DHT22;9069;52.044;7.472;2023-02-01T00:58:50;8.30;97.90
17887;DHT22;9069;52.044;7.472;2023-02-01T01:01:20;8.30;97.90
17887;DHT22;9069;52.044;7.472;2023-02-01T01:03:50;8.30;97.90
17887;DHT22;9069;52.044;7.472;2023-02-01T01:06:28;8.40;98.00
17887;DHT22;9069;52.044;7.472;2023-02-01T01:08:56;8.30;98.00
17887;DHT22;9069;52.044;7.472;2023-02-01T01:11:30;8.30;98.00
17887;DHT22;9069;52.044;7.472;2023-02-01T01:13:58;8.30;98.00
17887;DHT22;9069;52.044;7.472;2023-02-01T01:16:26;8.40;98.00
17887;DHT22;9069;52.044;7.472;2023-02-01T01:18:54;8.40;98.00
17887;DHT22;9069;52.044;7.472;2023-02-01T01:21:22;8.40;98.00
17887;DHT22;9069;52.044;7.472;2023-02-01T01:23:49;8.40;98.00
17887;DHT22;9069;52.044;7.472;2023-02-01T01:26:19;8.40;98.00
17887;DHT22;9069;52.044;7.472;2023-02-01T01:28:46;8.40;98.00
17887;DHT22;9069;52.044;7.472;2023-02-01T01:31:14;8.40;98.00
17887;DHT22;9069;52.044;7.472;2023-02-01T01:33:42;8.40;98.00
17887;DHT22;9069;52.044;7.472;2023-02-01T01:36:11;8.40;98.00
17887;DHT22;9069;52.044;7.472;2023-02-01T01:38:39;8.40;98.00
17887;DHT22;9069;52.044;7.472;2023-02-01T01:41:07;8.40;97.90
17887;DHT22;9069;52.044;7.472;2023-02-01T01:46:22;8.40;97.80
17887;DHT22;9069;52.044;7.472;2023-02-01T01:49:08;8.40;97.80
17887;DHT22;9069;52.044;7.472;2023-02-01T01:54:17;8.40;97.80
17887;DHT22;9069;52.044;7.472;2023-02-01T01:56:49;8.40;97.80
17887;DHT22;9069;52.044;7.472;2023-02-01T01:59:17;8.40;97.80
17887;DHT22;9069;52.044;7.472;2023-02-01T02:01:45;8.40;97.80
17887;DHT22;9069;52.044;7.472;2023-02-01T02:04:12;8.40;97.80
17887;DHT22;9069;52.044;7.472;2023-02-01T02:09:12;8.40;97.70
17887;DHT22;9069;52.044;7.472;2023-02-01T02:11:38;8.50;97.80
17887;DHT22;9069;52.044;7.472;2023-02-01T02:14:08;8.50;97.70
17887;DHT22;9069;52.044;7.472;2023-02-01T02:16:58;8.50;97.70
17887;DHT22;9069;52.044;7.472;2023-02-01T02:19:55;8.50;97.60
17887;DHT22;9069;52.044;7.472;2023-02-01T02:22:49;8.50;97.50
17887;DHT22;9069;52.044;7.472;2023-02-01T02:31:35;8.50;97.50
17887;DHT22;9069;52.044;7.472;2023-02-01T02:39:53;8.40;97.30
17887;DHT22;9069;52.044;7.472;2023-02-01T02:42:25;8.40;97.30
17887;DHT22;9069;52.044;7.472;2023-02-01T02:45:23;8.40;97.40
17887;DHT22;9069;52.044;7.472;2023-02-01T02:50:42;8.40;97.40
17887;DHT22;9069;52.044;7.472;2023-02-01T02:53:32;8.40;97.40
17887;DHT22;9069;52.044;7.472;2023-02-01T02:56:21;8.40;97.50
17887;DHT22;9069;52.044;7.472;2023-02-01T02:59:09;8.40;97.40
17887;DHT22;9069;52.044;7.472;2023-02-01T03:01:54;8.40;97.40
17887;DHT22;9069;52.044;7.472;2023-02-01T03:04:40;8.40;97.50
17887;DHT22;9069;52.044;7.472;2023-02-01T03:10:06;8.40;97.40
17887;DHT22;9069;52.044;7.472;2023-02-01T03:12:36;8.40;97.40
17887;DHT22;9069;52.044;7.472;2023-02-01T03:15:28;8.40;97.40
17887;DHT22;9069;52.044;7.472;2023-02-01T03:17:58;8.40;97.40
17887;DHT22;9069;52.044;7.472;2023-02-01T03:20:28;8.40;97.80
17887;DHT22;9069;52.044;7.472;2023-02-01T03:22:58;8.40;97.50
17887;DHT22;9069;52.044;7.472;2023-02-01T03:25:29;8.40;97.40
17887;DHT22;9069;52.044;7.472;2023-02-01T03:28:06;8.30;97.40
17887;DHT22;9069;52.044;7.472;2023-02-01T03:30:40;8.30;97.40
17887;DHT22;9069;52.044;7.472;2023-02-01T03:33:14;8.30;97.40
17887;DHT22;9069;52.044;7.472;2023-02-01T03:36:04;8.30;97.40
17887;DHT22;9069;52.044;7.472;2023-02-01T03:41:44;8.30;97.40
17887;DHT22;9069;52.044;7.472;2023-02-01T03:44:20;8.30;97.40
17887;DHT22;9069;52.044;7.472;2023-02-01T03:47:05;8.30;97.40
17887;DHT22;9069;52.044;7.472;2023-02-01T03:49:40;8.30;97.50
17887;DHT22;9069;52.044;7.472;2023-02-01T03:52:13;8.30;97.50
17887;DHT22;9069;52.044;7.472;2023-02-01T03:54:42;8.30;97.60
17887;DHT22;9069;52.044;7.472;2023-02-01T03:57:14;8.30;97.70
17887;DHT22;9069;52.044;7.472;2023-02-01T03:59:45;8.30;97.70
17887;DHT22;9069;52.044;7.472;2023-02-01T04:02:11;8.30;97.70
17887;DHT22;9069;52.044;7.472;2023-02-01T04:04:38;8.30;97.80
17887;DHT22;9069;52.044;7.472;2023-02-01T04:07:06;8.30;97.80
17887;DHT22;9069;52.044;7.472;2023-02-01T04:09:33;8.40;97.80
17887;DHT22;9069;52.044;7.472;2023-02-01T04:11:59;8.40;97.80
17887;DHT22;9069;52.044;7.472;2023-02-01T04:14:26;8.40;97.80
17887;DHT22;9069;52.044;7.472;2023-02-01T04:16:53;8.40;97.80
17887;DHT22;9069;52.044;7.472;2023-02-01T04:19:20;8.40;97.80
17887;DHT22;9069;52.044;7.472;2023-02-01T04:21:46;8.50;97.80
17887;DHT22;9069;52.044;7.472;2023-02-01T04:24:13;8.50;97.80
17887;DHT22;9069;52.044;7.472;2023-02-01T04:26:40;8.50;97.80
17887;DHT22;9069;52.044;7.472;2023-02-01T04:29:08;8.50;97.80
17887;DHT22;9069;52.044;7.472;2023-02-01T04:31:35;8.50;97.80
17887;DHT22;9069;52.044;7.472;2023-02-01T04:34:03;8.50;97.80
17887;DHT22;9069;52.044;7.472;2023-02-01T04:36:29;8.50;97.80
17887;DHT22;9069;52.044;7.472;2023-02-01T04:38:56;8.60;97.80
17887;DHT22;9069;52.044;7.472;2023-02-01T04:41:23;8.50;97.70
17887;DHT22;9069;52.044;7.472;2023-02-01T04:43:50;8.50;97.70
17887;DHT22;9069;52.044;7.472;2023-02-01T04:46:18;8.60;97.80
17887;DHT22;9069;52.044;7.472;2023-02-01T04:48:45;8.50;97.70
17887;DHT22;9069;52.044;7.472;2023-02-01T04:51:12;8.50;97.70
17887;DHT22;9069;52.044;7.472;2023-02-01T04:53:39;8.60;97.80
17887;DHT22;9069;52.044;7.472;2023-02-01T04:56:06;8.50;97.70
17887;DHT22;9069;52.044;7.472;2023-02-01T04:58:33;8.60;97.70
17887;DHT22;9069;52.044;7.472;2023-02-01T05:01:02;8.60;97.80
17887;DHT22;9069;52.044;7.472;2023-02-01T05:03:32;8.60;97.70
17887;DHT22;9069;52.044;7.472;2023-02-01T05:05:59;8.60;97.80
17887;DHT22;9069;52.044;7.472;2023-02-01T05:08:26;8.60;97.80
17887;DHT22;9069;52.044;7.472;2023-02-01T05:10:55;8.60;97.80
17887;DHT22;9069;52.044;7.472;2023-02-01T05:13:21;8.60;97.80
17887;DHT22;9069;52.044;7.472;2023-02-01T05:16:07;8.60;97.80
17887;DHT22;9069;52.044;7.472;2023-02-01T05:18:34;8.60;97.80
17887;DHT22;9069;52.044;7.472;2023-02-01T05:21:01;8.60;97.90
17887;DHT22;9069;52.044;7.472;2023-02-01T05:23:28;8.60;97.80
17887;DHT22;9069;52.044;7.472;2023-02-01T05:25:59;8.60;97.80
17887;DHT22;9069;52.044;7.472;2023-02-01T05:28:27;8.60;97.80
17887;DHT22;9069;52.044;7.472;2023-02-01T05:30:54;8.60;97.90
17887;DHT22;9069;52.044;7.472;2023-02-01T05:33:21;8.60;97.90
17887;DHT22;9069;52.044;7.472;2023-02-01T05:35:48;8.60;97.90
17887;DHT22;9069;52.044;7.472;2023-02-01T05:38:14;8.60;97.90
17887;DHT22;9069;52.044;7.472;2023-02-01T05:40:41;8.70;97.90
17887;DHT22;9069;52.044;7.472;2023-02-01T05:43:08;8.60;97.90
17887;DHT22;9069;52.044;7.472;2023-02-01T05:45:35;8.60;97.90
17887;DHT22;9069;52.044;7.472;2023-02-01T05:48:01;8.60;97.90
17887;DHT22;9069;52.044;7.472;2023-02-01T05:50:28;8.70;97.90
17887;DHT22;9069;52.044;7.472;2023-02-01T05:52:56;8.60;98.00
17887;DHT22;9069;52.044;7.472;2023-02-01T05:55:23;8.60;98.00
17887;DHT22;9069;52.044;7.472;2023-02-01T05:57:49;8.60;98.00
17887;DHT22;9069;52.044;7.472;2023-02-01T06:00:16;8.60;98.00
17887;DHT22;9069;52.044;7.472;2023-02-01T06:02:43;8.60;97.90
17887;DHT22;9069;52.044;7.472;2023-02-01T06:05:10;8.60;98.00
17887;DHT22;9069;52.044;7.472;2023-02-01T06:07:37;8.70;98.00
17887;DHT22;9069;52.044;7.472;2023-02-01T06:10:04;8.70;98.00
17887;DHT22;9069;52.044;7.472;2023-02-01T06:12:31;8.70;98.00
17887;DHT22;9069;52.044;7.472;2023-02-01T06:14:57;8.70;98.00
17887;DHT22;9069;52.044;7.472;2023-02-01T06:17:25;8.70;98.00
17887;DHT22;9069;52.044;7.472;2023-02-01T06:19:52;8.70;98.00
17887;DHT22;9069;52.044;7.472;2023-02-01T06:22:19;8.70;98.00
17887;DHT22;9069;52.044;7.472;2023-02-01T06:24:46;8.70;98.00
17887;DHT22;9069;52.044;7.472;2023-02-01T06:27:12;8.70;98.00
17887;DHT22;9069;52.044;7.472;2023-02-01T06:29:39;8.70;97.90
17887;DHT22;9069;52.044;7.472;2023-02-01T06:32:06;8.70;97.90
17887;DHT22;9069;52.044;7.472;2023-02-01T06:34:34;8.70;97.90
17887;DHT22;9069;52.044;7.472;2023-02-01T06:37:01;8.70;97.90
17887;DHT22;9069;52.044;7.472;2023-02-01T06:39:27;8.70;97.90
17887;DHT22;9069;52.044;7.472;2023-02-01T06:41:54;8.70;97.90
17887;DHT22;9069;52.044;7.472;2023-02-01T06:44:21;8.70;97.90
17887;DHT22;9069;52.044;7.472;2023-02-01T06:46:48;8.70;97.90
17887;DHT22;9069;52.044;7.472;2023-02-01T06:49:15;8.70;97.90
17887;DHT22;9069;52.044;7.472;2023-02-01T06:51:41;8.70;97.90
17887;DHT22;9069;52.044;7.472;2023-02-01T06:54:08;8.80;98.00
17887;DHT22;9069;52.044;7.472;2023-02-01T06:56:35;8.80;98.00
17887;DHT22;9069;52.044;7.472;2023-02-01T06:59:04;8.80;97.90
17887;DHT22;9069;52.044;7.472;2023-02-01T07:01:31;8.80;97.90
17887;DHT22;9069;52.044;7.472;2023-02-01T07:03:57;8.80;97.90
17887;DHT22;9069;52.044;7.472;2023-02-01T07:06:25;8.80;97.90
17887;DHT22;9069;52.044;7.472;2023-02-01T07:08:51;8.80;97.90
17887;DHT22;9069;52.044;7.472;2023-02-01T07:11:19;8.80;98.30
17887;DHT22;9069;52.044;7.472;2023-02-01T07:13:45;8.80;98.30
17887;DHT22;9069;52.044;7.472;2023-02-01T07:16:14;8.80;97.90
17887;DHT22;9069;52.044;7.472;2023-02-01T07:18:42;8.80;97.90
17887;DHT22;9069;52.044;7.472;2023-02-01T07:21:09;8.80;97.90
17887;DHT22;9069;52.044;7.472;2023-02-01T07:23:36;8.80;97.90
17887;DHT22;9069;52.044;7.472;2023-02-01T07:26:06;8.80;97.90
17887;DHT22;9069;52.044;7.472;2023-02-01T07:28:35;8.80;97.90
17887;DHT22;9069;52.044;7.472;2023-02-01T07:31:07;8.80;97.90
17887;DHT22;9069;52.044;7.472;2023-02-01T07:33:34;8.80;97.90
17887;DHT22;9069;52.044;7.472;2023-02-01T07:36:06;8.80;97.90
17887;DHT22;9069;52.044;7.472;2023-02-01T07:38:33;8.80;97.90
17887;DHT22;9069;52.044;7.472;2023-02-01T07:41:02;8.80;97.90
17887;DHT22;9069;52.044;7.472;2023-02-01T07:43:29;8.90;98.00
17887;DHT22;9069;52.044;7.472;2023-02-01T07:45:56;8.90;98.00
17887;DHT22;9069;52.044;7.472;2023-02-01T07:48:24;8.90;98.00
17887;DHT22;9069;52.044;7.472;2023-02-01T07:51:02;8.90;98.00
17887;DHT22;9069;52.044;7.472;2023-02-01T07:53:31;8.90;98.00
17887;DHT22;9069;52.044;7.472;2023-02-01T07:55:58;8.90;98.00
17887;DHT22;9069;52.044;7.472;2023-02-01T07:58:25;8.90;98.00
17887;DHT22;9069;52.044;7.472;2023-02-01T08:00:53;8.90;98.00
17887;DHT22;9069;52.044;7.472;2023-02-01T08:03:38;8.90;98.00
17887;DHT22;9069;52.044;7.472;2023-02-01T08:06:06;8.90;98.00
17887;DHT22;9069;52.044;7.472;2023-02-01T08:08:33;8.90;98.00
17887;DHT22;9069;52.044;7.472;2023-02-01T08:11:01;9.00;98.00
17887;DHT22;9069;52.044;7.472;2023-02-01T08:13:29;9.00;98.00
17887;DHT22;9069;52.044;7.472;2023-02-01T08:16:00;9.00;98.00
17887;DHT22;9069;52.044;7.472;2023-02-01T08:18:27;9.00;97.90
17887;DHT22;9069;52.044;7.472;2023-02-01T08:20:54;9.00;97.90
17887;DHT22;9069;52.044;7.472;2023-02-01T08:23:22;9.00;97.90
17887;DHT22;9069;52.044;7.472;2023-02-01T08:25:49;9.10;98.00
17887;DHT22;9069;52.044;7.472;2023-02-01T08:28:16;9.10;97.90
17887;DHT22;9069;52.044;7.472;2023-02-01T08:30:42;9.10;97.90
17887;DHT22;9069;52.044;7.472;2023-02-01T08:33:09;9.10;97.90
17887;DHT22;9069;52.044;7.472;2023-02-01T08:35:37;9.10;97.90
17887;DHT22;9069;52.044;7.472;2023-02-01T08:38:10;9.10;97.80
17887;DHT22;9069;52.044;7.472;2023-02-01T08:40:36;9.10;97.80
17887;DHT22;9069;52.044;7.472;2023-02-01T08:43:03;9.20;97.80
17887;DHT22;9069;52.044;7.472;2023-02-01T08:45:30;9.20;97.70
17887;DHT22;9069;52.044;7.472;2023-02-01T08:47:57;9.20;97.80
17887;DHT22;9069;52.044;7.472;2023-02-01T08:50:24;9.20;97.70
17887;DHT22;9069;52.044;7.472;2023-02-01T08:52:52;9.20;97.70
17887;DHT22;9069;52.044;7.472;2023-02-01T08:55:22;9.20;97.70
17887;DHT22;9069;52.044;7.472;2023-02-01T08:57:49;9.30;97.70
17887;DHT22;9069;52.044;7.472;2023-02-01T09:00:17;9.30;97.70
17887;DHT22;9069;52.044;7.472;2023-02-01T09:02:44;9.30;97.60
17887;DHT22;9069;52.044;7.472;2023-02-01T09:05:11;9.30;97.60
17887;DHT22;9069;52.044;7.472;2023-02-01T09:07:38;9.30;97.70
17887;DHT22;9069;52.044;7.472;2023-02-01T09:10:05;9.40;97.70
17887;DHT22;9069;52.044;7.472;2023-02-01T09:12:33;9.40;97.70
17887;DHT22;9069;52.044;7.472;2023-02-01T09:15:00;9.40;97.70
17887;DHT22;9069;52.044;7.472;2023-02-01T09:17:28;9.50;97.70
17887;DHT22;9069;52.044;7.472;2023-02-01T09:19:59;9.50;97.60
17887;DHT22;9069;52.044;7.472;2023-02-01T09:22:26;9.50;97.60
17887;DHT22;9069;52.044;7.472;2023-02-01T09:24:53;9.50;97.60
17887;DHT22;9069;52.044;7.472;2023-02-01T09:27:21;9.50;97.60
17887;DHT22;9069;52.044;7.472;2023-02-01T09:29:48;9.60;97.60
17887;DHT22;9069;52.044;7.472;2023-02-01T09:32:20;9.60;97.60
17887;DHT22;9069;52.044;7.472;2023-02-01T09:34:48;9.60;97.60
17887;DHT22;9069;52.044;7.472;2023-02-01T09:37:15;9.60;97.60
17887;DHT22;9069;52.044;7.472;2023-02-01T09:39:42;9.70;97.70
17887;DHT22;9069;52.044;7.472;2023-02-01T09:42:40;9.70;97.70
17887;DHT22;9069;52.044;7.472;2023-02-01T09:45:23;9.70;97.50
17887;DHT22;9069;52.044;7.472;2023-02-01T09:47:57;9.80;97.50
17887;DHT22;9069;52.044;7.472;2023-02-01T09:50:34;9.80;97.50
17887;DHT22;9069;52.044;7.472;2023-02-01T09:55:46;9.90;97.50
17887;DHT22;9069;52.044;7.472;2023-02-01T10:00:54;10.00;97.60
17887;DHT22;9069;52.044;7.472;2023-02-01T10:03:24;10.00;97.20
17887;DHT22;9069;52.044;7.472;2023-02-01T10:06:18;10.10;97.40
17887;DHT22;9069;52.044;7.472;2023-02-01T10:09:05;10.10;97.10
17887;DHT22;9069;52.044;7.472;2023-02-01T10:22:52;10.20;97.30
17887;DHT22;9069;52.044;7.472;2023-02-01T10:25:56;10.30;97.10
17887;DHT22;9069;52.044;7.472;2023-02-01T10:28:28;10.30;96.90
17887;DHT22;9069;52.044;7.472;2023-02-01T10:30:58;10.30;97.10
17887;DHT22;9069;52.044;7.472;2023-02-01T10:33:30;10.30;97.00
17887;DHT22;9069;52.044;7.472;2023-02-01T10:36:08;10.30;97.40
17887;DHT22;9069;52.044;7.472;2023-02-01T10:38:37;10.40;96.90
17887;DHT22;9069;52.044;7.472;2023-02-01T10:41:15;10.40;97.00
17887;DHT22;9069;52.044;7.472;2023-02-01T10:43:45;10.40;96.70
17887;DHT22;9069;52.044;7.472;2023-02-01T10:46:13;10.40;96.90
17887;DHT22;9069;52.044;7.472;2023-02-01T10:48:40;10.40;96.90
17887;DHT22;9069;52.044;7.472;2023-02-01T10:51:16;10.40;96.80
17887;DHT22;9069;52.044;7.472;2023-02-01T10:54:35;10.40;96.50
17887;DHT22;9069;52.044;7.472;2023-02-01T10:56:44;10.50;96.60
17887;DHT22;9069;52.044;7.472;2023-02-01T10:59:20;10.50;96.60
17887;DHT22;9069;52.044;7.472;2023-02-01T11:01:48;10.50;96.40
17887;DHT22;9069;52.044;7.472;2023-02-01T11:04:19;10.50;96.60
17887;DHT22;9069;52.044;7.472;2023-02-01T11:06:51;10.40;96.40
17887;DHT22;9069;52.044;7.472;2023-02-01T11:09:19;10.40;96.40
17887;DHT22;9069;52.044;7.472;2023-02-01T11:16:59;10.40;96.50
17887;DHT22;9069;52.044;7.472;2023-02-01T11:19:29;10.40;96.60
17887;DHT22;9069;52.044;7.472;2023-02-01T11:21:58;10.30;96.70
17887;DHT22;9069;52.044;7.472;2023-02-01T11:27:00;10.30;96.90
17887;DHT22;9069;52.044;7.472;2023-02-01T11:29:43;10.20;97.00
17887;DHT22;9069;52.044;7.472;2023-02-01T11:32:13;10.20;97.10
17887;DHT22;9069;52.044;7.472;2023-02-01T11:34:47;10.10;97.10
17887;DHT22;9069;52.044;7.472;2023-02-01T11:42:22;10.00;97.50
17887;DHT22;9069;52.044;7.472;2023-02-01T11:44:49;10.00;97.50
17887;DHT22;9069;52.044;7.472;2023-02-01T11:49:47;9.90;97.60
17887;DHT22;9069;52.044;7.472;2023-02-01T11:55:30;9.80;98.00
17887;DHT22;9069;52.044;7.472;2023-02-01T12:06:38;9.70;98.30
17887;DHT22;9069;52.044;7.472;2023-02-01T12:09:34;9.60;98.40
17887;DHT22;9069;52.044;7.472;2023-02-01T12:12:17;9.60;98.50
17887;DHT22;9069;52.044;7.472;2023-02-01T12:18:12;9.50;98.70
17887;DHT22;9069;52.044;7.472;2023-02-01T12:24:11;9.50;98.80
17887;DHT22;9069;52.044;7.472;2023-02-01T12:29:56;9.50;99.10
17887;DHT22;9069;52.044;7.472;2023-02-01T12:32:50;9.50;99.10
17887;DHT22;9069;52.044;7.472;2023-02-01T12:38:30;9.50;99.50
17887;DHT22;9069;52.044;7.472;2023-02-01T12:44:03;9.50;99.70
17887;DHT22;9069;52.044;7.472;2023-02-01T12:46:42;9.50;99.60
17887;DHT22;9069;52.044;7.472;2023-02-01T12:49:27;9.60;99.70
17887;DHT22;9069;52.044;7.472;2023-02-01T12:52:00;9.60;99.70
17887;DHT22;9069;52.044;7.472;2023-02-01T12:57:23;9.60;99.60
17887;DHT22;9069;52.044;7.472;2023-02-01T13:05:58;9.60;99.70
17887;DHT22;9069;52.044;7.472;2023-02-01T13:11:26;9.70;99.70
17887;DHT22;9069;52.044;7.472;2023-02-01T13:16:40;9.70;99.70
17887;DHT22;9069;52.044;7.472;2023-02-01T13:19:24;9.70;99.60
17887;DHT22;9069;52.044;7.472;2023-02-01T13:21:59;9.70;99.70
17887;DHT22;9069;52.044;7.472;2023-02-01T13:24:32;9.70;99.60
17887;DHT22;9069;52.044;7.472;2023-02-01T13:27:00;9.70;99.60
17887;DHT22;9069;52.044;7.472;2023-02-01T13:29:29;9.70;99.60
17887;DHT22;9069;52.044;7.472;2023-02-01T13:38:09;9.80;99.70
17887;DHT22;9069;52.044;7.472;2023-02-01T13:40:46;9.80;99.60
17887;DHT22;9069;52.044;7.472;2023-02-01T13:43:21;9.80;99.60
17887;DHT22;9069;52.044;7.472;2023-02-01T13:45:55;10.00;99.70
17887;DHT22;9069;52.044;7.472;2023-02-01T13:48:28;9.90;99.70
17887;DHT22;9069;52.044;7.472;2023-02-01T13:50:58;9.90;99.70
17887;DHT22;9069;52.044;7.472;2023-02-01T13:53:36;9.90;99.80
17887;DHT22;9069;52.044;7.472;2023-02-01T13:56:23;9.90;99.90
17887;DHT22;9069;52.044;7.472;2023-02-01T13:58:50;10.00;99.90
17887;DHT22;9069;52.044;7.472;2023-02-01T14:04:04;10.10;99.80
17887;DHT22;9069;52.044;7.472;2023-02-01T14:09:13;10.20;99.70
17887;DHT22;9069;52.044;7.472;2023-02-01T14:11:49;10.20;99.60
17887;DHT22;9069;52.044;7.472;2023-02-01T14:16:44;10.20;99.40
17887;DHT22;9069;52.044;7.472;2023-02-01T14:19:32;10.20;99.70
17887;DHT22;9069;52.044;7.472;2023-02-01T14:24:51;10.20;99.40
17887;DHT22;9069;52.044;7.472;2023-02-01T14:27:26;10.20;99.30
17887;DHT22;9069;52.044;7.472;2023-02-01T14:29:59;10.20;99.30
17887;DHT22;9069;52.044;7.472;2023-02-01T14:32:36;10.20;99.30
17887;DHT22;9069;52.044;7.472;2023-02-01T14:35:24;10.20;99.30
17887;DHT22;9069;52.044;7.472;2023-02-01T14:38:01;10.20;99.30
17887;DHT22;9069;52.044;7.472;2023-02-01T14:40:30;10.20;99.30
17887;DHT22;9069;52.044;7.472;2023-02-01T14:42:57;10.20;99.30
17887;DHT22;9069;52.044;7.472;2023-02-01T14:47:56;10.20;99.20
17887;DHT22;9069;52.044;7.472;2023-02-01T14:50:46;10.20;99.20
17887;DHT22;9069;52.044;7.472;2023-02-01T14:53:20;10.20;99.30
17887;DHT22;9069;52.044;7.472;2023-02-01T14:56:09;10.10;99.30
17887;DHT22;9069;52.044;7.472;2023-02-01T14:59:01;10.10;99.50
17887;DHT22;9069;52.044;7.472;2023-02-01T15:01:35;10.20;99.50
17887;DHT22;9069;52.044;7.472;2023-02-01T15:04:14;10.10;99.40
17887;DHT22;9069;52.044;7.472;2023-02-01T15:07:07;10.10;99.50
17887;DHT22;9069;52.044;7.472;2023-02-01T15:09:46;10.10;99.40
17887;DHT22;9069;52.044;7.472;2023-02-01T15:12:17;10.10;99.40
17887;DHT22;9069;52.044;7.472;2023-02-01T15:15:02;10.10;99.30
17887;DHT22;9069;52.044;7.472;2023-02-01T15:17:31;10.10;99.40
17887;DHT22;9069;52.044;7.472;2023-02-01T15:20:19;10.10;99.40
17887;DHT22;9069;52.044;7.472;2023-02-01T15:25:33;10.10;99.70
17887;DHT22;9069;52.044;7.472;2023-02-01T15:28:01;10.10;99.50
17887;DHT22;9069;52.044;7.472;2023-02-01T15:30:31;10.10;99.50
17887;DHT22;9069;52.044;7.472;2023-02-01T15:35:43;10.10;99.70
17887;DHT22;9069;52.044;7.472;2023-02-01T15:43:35;10.10;99.80
17887;DHT22;9069;52.044;7.472;2023-02-01T15:46:08;10.10;99.30
17887;DHT22;9069;52.044;7.472;2023-02-01T15:48:44;10.20;99.30
17887;DHT22;9069;52.044;7.472;2023-02-01T15:51:18;10.20;99.30
17887;DHT22;9069;52.044;7.472;2023-02-01T15:53:49;10.20;99.30
17887;DHT22;9069;52.044;7.472;2023-02-01T15:56:22;10.20;99.30
17887;DHT22;9069;52.044;7.472;2023-02-01T15:58:53;10.20;99.30
17887;DHT22;9069;52.044;7.472;2023-02-01T16:01:21;10.20;99.20
17887;DHT22;9069;52.044;7.472;2023-02-01T16:03:48;10.20;99.20
17887;DHT22;9069;52.044;7.472;2023-02-01T16:11:28;10.20;99.10
17887;DHT22;9069;52.044;7.472;2023-02-01T16:13:58;10.20;99.00
17887;DHT22;9069;52.044;7.472;2023-02-01T16:16:26;10.20;99.00
17887;DHT22;9069;52.044;7.472;2023-02-01T16:18:53;10.20;99.00
17887;DHT22;9069;52.044;7.472;2023-02-01T16:21:20;10.10;98.90
17887;DHT22;9069;52.044;7.472;2023-02-01T16:23:50;10.10;98.90
17887;DHT22;9069;52.044;7.472;2023-02-01T16:26:18;10.10;98.80
17887;DHT22;9069;52.044;7.472;2023-02-01T16:28:46;10.10;98.80
17887;DHT22;9069;52.044;7.472;2023-02-01T16:31:14;10.10;98.80
17887;DHT22;9069;52.044;7.472;2023-02-01T16:33:48;10.10;98.80
17887;DHT22;9069;52.044;7.472;2023-02-01T16:36:16;10.10;98.70
17887;DHT22;9069;52.044;7.472;2023-02-01T16:38:43;10.10;98.80
17887;DHT22;9069;52.044;7.472;2023-02-01T16:41:13;10.10;98.80
17887;DHT22;9069;52.044;7.472;2023-02-01T16:43:40;10.10;98.80
17887;DHT22;9069;52.044;7.472;2023-02-01T16:46:14;10.10;98.80
17887;DHT22;9069;52.044;7.472;2023-02-01T16:48:44;10.00;98.80
17887;DHT22;9069;52.044;7.472;2023-02-01T16:51:14;10.00;98.80
17887;DHT22;9069;52.044;7.472;2023-02-01T16:53:43;10.00;98.80
17887;DHT22;9069;52.044;7.472;2023-02-01T16:56:23;9.90;98.70
17887;DHT22;9069;52.044;7.472;2023-02-01T16:58:51;9.90;98.70
17887;DHT22;9069;52.044;7.472;2023-02-01T17:01:19;9.80;98.70
17887;DHT22;9069;52.044;7.472;2023-02-01T17:03:46;9.80;98.80
17887;DHT22;9069;52.044;7.472;2023-02-01T17:06:22;9.80;98.90
17887;DHT22;9069;52.044;7.472;2023-02-01T17:08:52;9.70;99.00
17887;DHT22;9069;52.044;7.472;2023-02-01T17:11:19;9.70;99.10
17887;DHT22;9069;52.044;7.472;2023-02-01T17:13:46;9.70;99.20
17887;DHT22;9069;52.044;7.472;2023-02-01T17:16:29;9.70;99.30
17887;DHT22;9069;52.044;7.472;2023-02-01T17:19:04;9.70;99.50
17887;DHT22;9069;52.044;7.472;2023-02-01T17:21:41;9.60;99.60
17887;DHT22;9069;52.044;7.472;2023-02-01T17:24:13;9.60;99.70
17887;DHT22;9069;52.044;7.472;2023-02-01T17:26:41;9.60;99.70
17887;DHT22;9069;52.044;7.472;2023-02-01T17:29:09;9.60;99.70
17887;DHT22;9069;52.044;7.472;2023-02-01T17:31:41;9.60;99.80
17887;DHT22;9069;52.044;7.472;2023-02-01T17:34:09;9.60;99.80
17887;DHT22;9069;52.044;7.472;2023-02-01T17:36:37;9.60;99.80
17887;DHT22;9069;52.044;7.472;2023-02-01T17:39:05;9.60;99.80
17887;DHT22;9069;52.044;7.472;2023-02-01T17:41:32;9.60;99.80
17887;DHT22;9069;52.044;7.472;2023-02-01T17:43:59;9.60;99.80
17887;DHT22;9069;52.044;7.472;2023-02-01T17:46:26;9.60;99.80
17887;DHT22;9069;52.044;7.472;2023-02-01T17:48:54;9.60;99.80
17887;DHT22;9069;52.044;7.472;2023-02-01T17:51:24;9.60;99.70
17887;DHT22;9069;52.044;7.472;2023-02-01T17:53:52;9.60;99.90
17887;DHT22;9069;52.044;7.472;2023-02-01T17:56:22;9.60;99.70
17887;DHT22;9069;52.044;7.472;2023-02-01T17:58:50;9.60;99.70
17887;DHT22;9069;52.044;7.472;2023-02-01T18:01:21;9.60;99.70
17887;DHT22;9069;52.044;7.472;2023-02-01T18:03:49;9.60;99.70
17887;DHT22;9069;52.044;7.472;2023-02-01T18:06:18;9.60;99.60
17887;DHT22;9069;52.044;7.472;2023-02-01T18:08:46;9.60;99.70
17887;DHT22;9069;52.044;7.472;2023-02-01T18:11:16;9.60;99.60
17887;DHT22;9069;52.044;7.472;2023-02-01T18:13:44;9.60;99.60
17887;DHT22;9069;52.044;7.472;2023-02-01T18:16:18;9.50;99.60
17887;DHT22;9069;52.044;7.472;2023-02-01T18:18:46;9.50;99.60
17887;DHT22;9069;52.044;7.472;2023-02-01T18:21:14;9.50;99.60
17887;DHT22;9069;52.044;7.472;2023-02-01T18:23:42;9.50;99.60
17887;DHT22;9069;52.044;7.472;2023-02-01T18:26:16;9.50;99.70
17887;DHT22;9069;52.044;7.472;2023-02-01T18:28:43;9.50;99.70
17887;DHT22;9069;52.044;7.472;2023-02-01T18:31:26;9.50;99.70
17887;DHT22;9069;52.044;7.472;2023-02-01T18:33:54;9.50;99.80
17887;DHT22;9069;52.044;7.472;2023-02-01T18:36:21;9.50;99.80
17887;DHT22;9069;52.044;7.472;2023-02-01T18:38:48;9.50;99.80
17887;DHT22;9069;52.044;7.472;2023-02-01T18:41:17;9.50;99.80
17887;DHT22;9069;52.044;7.472;2023-02-01T18:43:47;9.50;99.80